createdAt,value
2023-11-09T00:02:06.683Z,100596.34
2023-11-09T00:04:46.877Z,100598.34
2023-11-09T00:07:34.281Z,100602.69
2023-11-09T00:10:21.511Z,100596.53
2023-11-09T00:13:00.064Z,100598.59
2023-11-09T00:15:43.299Z,100605.41
2023-11-09T00:18:23.337Z,100606.38
2023-11-09T00:21:10.120Z,100602.91
2023-11-09T00:24:03.724Z,100611.72
2023-11-09T00:26:32.516Z,100611.91
2023-11-09T00:29:02.019Z,100625.19
2023-11-09T00:31:42.398Z,100619.63
2023-11-09T00:34:14.875Z,100605.78
2023-11-09T00:37:04.270Z,100626.91
2023-11-09T00:39:38.294Z,100621.47
2023-11-09T00:42:08.809Z,100604.97
2023-11-09T00:44:38.694Z,100620.97
2023-11-09T00:47:08.449Z,100626.28
2023-11-09T00:49:48.675Z,100621.97
2023-11-09T00:52:18.539Z,100608.03
2023-11-09T00:54:50.906Z,100622.78
2023-11-09T00:57:18.846Z,100620.06
2023-11-09T00:59:48.150Z,100621.88
2023-11-09T01:02:22.348Z,100636.97
2023-11-09T01:04:59.073Z,100628.09
2023-11-09T01:07:30.526Z,100630.06
2023-11-09T01:10:02.396Z,100614.50
2023-11-09T01:12:38.851Z,100626.09
2023-11-09T01:15:08.900Z,100634.81
2023-11-09T01:17:40.184Z,100642.72
2023-11-09T01:20:14.806Z,100636.69
2023-11-09T01:22:44.555Z,100630.53
2023-11-09T01:25:16.630Z,100639.53
2023-11-09T01:27:45.375Z,100643.00
2023-11-09T01:30:17.452Z,100638.94
2023-11-09T01:32:44.789Z,100655.44
2023-11-09T01:35:14.185Z,100657.97
2023-11-09T01:37:42.523Z,100674.84
2023-11-09T01:40:11.569Z,100671.34
2023-11-09T01:42:39.169Z,100670.59
2023-11-09T01:45:12.554Z,100677.59
2023-11-09T01:47:40.864Z,100674.06
2023-11-09T01:50:14.020Z,100684.69
2023-11-09T01:52:48.269Z,100675.06
2023-11-09T01:55:21.875Z,100674.13
2023-11-09T01:57:56.985Z,100689.16
2023-11-09T02:00:29.321Z,100684.81
2023-11-09T02:03:00.242Z,100694.53
2023-11-09T02:05:27.879Z,100705.22
2023-11-09T02:07:58.235Z,100702.00
2023-11-09T02:10:26.342Z,100699.47
2023-11-09T02:12:57.745Z,100708.38
2023-11-09T02:15:34.206Z,100719.75
2023-11-09T02:18:01.774Z,100715.38
2023-11-09T02:20:48.059Z,100714.69
2023-11-09T02:23:24.523Z,100722.59
2023-11-09T02:25:53.748Z,100728.00
2023-11-09T02:28:26.129Z,100728.03
2023-11-09T02:30:55.414Z,100727.25
2023-11-09T02:33:35.143Z,100729.97
2023-11-09T02:36:05.431Z,100738.84
2023-11-09T02:38:41.325Z,100733.69
2023-11-09T02:41:12.453Z,100744.13
2023-11-09T02:43:44.643Z,100739.75
2023-11-09T02:46:14.110Z,100741.00
2023-11-09T02:48:44.233Z,100765.34
2023-11-09T02:51:11.856Z,100768.03
2023-11-09T02:53:44.846Z,100760.06
2023-11-09T02:56:15.645Z,100769.00
2023-11-09T02:58:48.081Z,100765.69
2023-11-09T03:01:20.804Z,100785.84
2023-11-09T03:04:24.075Z,100786.03
2023-11-09T03:06:54.220Z,100777.28
2023-11-09T03:09:23.928Z,100786.03
2023-11-09T03:11:53.101Z,100790.47
2023-11-09T03:14:27.256Z,100788.72
2023-11-09T03:16:56.317Z,100782.78
2023-11-09T03:19:29.273Z,100794.88
2023-11-09T03:22:02.641Z,100798.41
2023-11-09T03:24:35.352Z,100805.19
2023-11-09T03:27:07.213Z,100796.44
2023-11-09T03:29:40.087Z,100806.78
2023-11-09T03:32:11.486Z,100806.72
2023-11-09T03:34:44.256Z,100806.72
2023-11-09T03:40:05.927Z,100797.19
2023-11-09T03:42:35.411Z,100810.97
2023-11-09T03:45:07.379Z,100800.38
2023-11-09T03:47:39.075Z,100800.34
2023-11-09T03:52:56.923Z,100806.41
2023-11-09T03:55:34.309Z,100812.47
2023-11-09T03:58:10.630Z,100817.78
2023-11-09T04:03:24.493Z,100821.94
2023-11-09T04:06:07.736Z,100820.09
2023-11-09T04:08:36.116Z,100829.59
2023-11-09T04:11:06.456Z,100829.53
2023-11-09T04:16:28.070Z,100830.34
2023-11-09T04:19:01.642Z,100844.41
2023-11-09T04:21:32.130Z,100830.47
2023-11-09T04:24:09.287Z,100839.88
2023-11-09T04:26:39.001Z,100852.13
2023-11-09T04:29:12.336Z,100844.25
2023-11-09T04:31:45.355Z,100853.75
2023-11-09T04:34:13.135Z,100849.31
2023-11-09T04:36:54.633Z,100860.66
2023-11-09T04:39:38.146Z,100851.91
2023-11-09T04:42:10.527Z,100865.06
2023-11-09T04:44:41.895Z,100856.34
2023-11-09T04:47:31.950Z,100856.56
2023-11-09T04:50:03.889Z,100833.94
2023-11-09T04:52:32.370Z,100863.69
2023-11-09T04:55:16.265Z,100854.22
2023-11-09T04:58:15.337Z,100857.00
2023-11-09T05:01:05.098Z,100867.44
2023-11-09T05:04:30.455Z,100876.31
2023-11-09T05:07:09.802Z,100873.81
2023-11-09T05:09:48.586Z,100887.72
2023-11-09T05:12:26.515Z,100880.78
2023-11-09T05:15:21.113Z,100885.88
2023-11-09T05:18:39.860Z,100894.56
2023-11-09T05:21:45.250Z,100898.09
2023-11-09T05:24:39.687Z,100902.50
2023-11-09T05:27:24.578Z,100899.13
2023-11-09T05:29:59.289Z,100905.22
2023-11-09T05:32:32.082Z,100902.66
2023-11-09T05:35:19.708Z,100892.97
2023-11-09T05:38:24.053Z,100904.34
2023-11-09T05:43:58.566Z,100929.88
2023-11-09T05:47:17.572Z,100922.91
2023-11-09T05:50:15.605Z,100941.25
2023-11-09T05:54:14.325Z,100939.28
2023-11-09T06:03:50.091Z,100942.94
2023-11-09T06:06:29.654Z,100956.13
2023-11-09T06:09:45.549Z,100954.44
2023-11-09T06:15:37.799Z,100957.06
2023-11-09T06:18:17.128Z,100958.84
2023-11-09T06:21:39.407Z,100961.47
2023-11-09T06:24:31.623Z,100977.09
2023-11-09T06:32:49.645Z,100963.69
2023-11-09T06:35:34.317Z,100976.22
2023-11-09T06:38:05.465Z,100981.66
2023-11-09T06:40:39.613Z,100987.78
2023-11-09T06:43:31.731Z,100984.22
2023-11-09T06:46:43.660Z,100998.28
2023-11-09T06:49:20.377Z,101003.59
2023-11-09T06:52:19.061Z,101003.78
2023-11-09T06:55:06.000Z,101003.88
2023-11-09T06:57:58.930Z,101008.28
2023-11-09T07:00:55.155Z,101003.19
2023-11-09T07:03:41.091Z,101006.16
2023-11-09T07:06:30.084Z,101018.28
2023-11-09T07:09:11.127Z,101012.13
2023-11-09T07:12:56.320Z,101014.59
2023-11-09T07:16:29.405Z,101032.22
2023-11-09T07:19:07.828Z,101012.94
2023-11-09T07:22:17.819Z,101026.16
2023-11-09T07:25:47.958Z,101028.63
2023-11-09T07:28:27.743Z,101036.47
2023-11-09T07:31:25.613Z,101044.34
2023-11-09T07:34:24.679Z,101043.25
2023-11-09T07:37:28.808Z,101039.94
2023-11-09T07:40:38.185Z,101036.25
2023-11-09T07:43:13.010Z,101064.63
2023-11-09T07:46:59.780Z,101061.97
2023-11-09T07:50:01.066Z,101059.09
2023-11-09T07:52:54.735Z,101058.63
2023-11-09T07:56:55.186Z,101066.31
2023-11-09T08:00:07.608Z,101056.53
2023-11-09T08:03:54.765Z,101063.78
2023-11-09T08:07:01.475Z,101069.88
2023-11-09T08:10:59.273Z,101062.53
2023-11-09T08:13:47.748Z,101071.94
2023-11-09T08:17:07.353Z,101074.50
2023-11-09T08:20:25.438Z,101088.41
2023-11-09T08:23:22.723Z,101076.44
2023-11-09T08:29:41.996Z,101090.16
2023-11-09T08:32:23.697Z,101109.34
2023-11-09T08:35:25.619Z,101108.13
2023-11-09T08:41:57.676Z,101106.13
2023-11-09T08:45:03.300Z,101091.69
2023-11-09T08:48:17.637Z,101090.66
2023-11-09T08:55:25.432Z,101104.91
2023-11-09T08:59:19.523Z,101101.66
2023-11-09T09:02:13.379Z,101092.81
2023-11-09T09:05:01.249Z,101093.75
2023-11-09T09:08:28.523Z,101102.88
2023-11-09T09:11:24.476Z,101100.69
2023-11-09T09:14:14.524Z,101099.13
2023-11-09T09:16:55.971Z,101092.22
2023-11-09T09:19:59.305Z,101092.44
2023-11-09T09:22:57.593Z,101096.34
2023-11-09T09:32:40.225Z,101097.41
2023-11-09T09:35:52.304Z,101093.56
2023-11-09T09:43:24.136Z,101096.50
2023-11-09T09:46:47.196Z,101102.41
2023-11-09T09:50:23.389Z,101105.75
2023-11-09T09:54:19.730Z,101091.22
2023-11-09T09:57:51.387Z,101085.50
2023-11-09T10:01:19.566Z,101092.53
2023-11-09T10:04:08.766Z,101097.78
2023-11-09T10:07:10.887Z,101102.84
2023-11-09T10:10:15.963Z,101104.31
2023-11-09T10:13:49.200Z,101102.97
2023-11-09T10:16:54.810Z,101097.00
2023-11-09T10:19:52.396Z,101088.63
2023-11-09T10:22:54.984Z,101089.00
2023-11-09T10:26:13.991Z,101096.59
2023-11-09T10:33:46.135Z,101104.25
2023-11-09T10:37:27.898Z,101097.50
2023-11-09T10:48:37.224Z,101095.13
2023-11-09T10:52:07.434Z,101105.22
2023-11-09T10:54:56.171Z,101112.72
2023-11-09T10:57:56.774Z,101114.22
2023-11-09T11:00:56.687Z,101105.53
2023-11-09T11:03:56.075Z,101096.53
2023-11-09T11:06:52.749Z,101116.31
2023-11-09T11:10:44.423Z,101111.59
2023-11-09T11:13:24.224Z,101120.66
2023-11-09T11:20:01.821Z,101114.34
2023-11-09T11:22:57.144Z,101121.22
2023-11-09T11:25:55.269Z,101104.66
2023-11-09T11:28:34.704Z,101113.78
2023-11-09T11:34:51.554Z,101113.03
2023-11-09T11:38:54.904Z,101117.16
2023-11-09T11:42:31.896Z,101121.28
2023-11-09T11:45:14.369Z,101125.09
2023-11-09T11:47:55.274Z,101122.81
2023-11-09T11:50:49.571Z,101132.59
2023-11-09T11:53:56.755Z,101129.56
2023-11-09T11:56:55.843Z,101132.44
2023-11-09T12:00:54.182Z,101132.34
2023-11-09T12:06:44.739Z,101128.03
2023-11-09T12:10:14.184Z,101135.91
2023-11-09T12:13:41.401Z,101140.28
2023-11-09T12:16:25.313Z,101140.78
2023-11-09T12:19:26.124Z,101146.63
2023-11-09T12:22:18.706Z,101152.72
2023-11-09T12:25:06.972Z,101136.69
2023-11-09T12:28:20.884Z,101152.44
2023-11-09T12:30:53.450Z,101151.53
2023-11-09T12:34:21.010Z,101139.31
2023-11-09T12:37:57.717Z,101159.81
2023-11-09T12:40:41.794Z,101146.31
2023-11-09T12:43:19.470Z,101158.75
2023-11-09T12:47:01.767Z,101154.28
2023-11-09T12:50:42.182Z,101160.75
2023-11-09T12:54:48.456Z,101159.13
2023-11-09T12:58:27.992Z,101164.19
2023-11-09T13:01:17.045Z,101154.59
2023-11-09T13:04:04.848Z,101157.31
2023-11-09T13:07:19.492Z,101170.44
2023-11-09T13:10:23.817Z,101159.59
2023-11-09T13:13:15.903Z,101177.53
2023-11-09T13:15:58.612Z,101152.59
2023-11-09T13:18:33.780Z,101174.66
2023-11-09T13:21:25.771Z,101177.38
2023-11-09T13:28:37.721Z,101176.38
2023-11-09T13:32:04.244Z,101178.94
2023-11-09T13:34:53.796Z,101169.09
2023-11-09T13:37:33.396Z,101169.19
2023-11-09T13:40:28.197Z,101184.22
2023-11-09T13:43:36.416Z,101188.66
2023-11-09T13:46:24.317Z,101189.66
2023-11-09T13:52:50.027Z,101201.66
2023-11-09T13:59:17.846Z,101193.34
2023-11-09T14:05:33.676Z,101196.66
2023-11-09T14:08:28.852Z,101205.78
2023-11-09T14:11:29.033Z,101211.13
2023-11-09T14:17:38.140Z,101220.44
2023-11-09T14:21:30.878Z,101216.13
2023-11-09T14:25:01.144Z,101215.59
2023-11-09T14:27:34.094Z,101214.94
2023-11-09T14:38:20.046Z,101226.09
2023-11-09T14:41:23.044Z,101221.75
2023-11-09T14:56:15.123Z,101222.53
2023-11-09T14:59:17.175Z,101238.66
2023-11-09T15:02:02.034Z,101224.16
2023-11-09T15:04:48.460Z,101234.81
2023-11-09T15:07:27.002Z,101227.72
2023-11-09T15:11:00.117Z,101233.34
2023-11-09T15:13:58.291Z,101236.91
2023-11-09T15:17:09.774Z,101232.88
2023-11-09T15:20:04.938Z,101243.69
2023-11-09T15:22:57.203Z,101251.78
2023-11-09T15:25:56.457Z,101254.53
2023-11-09T15:28:47.521Z,101261.84
2023-11-09T15:31:31.066Z,101249.75
2023-11-09T15:34:15.959Z,101255.16
2023-11-09T15:37:16.992Z,101252.97
2023-11-09T15:41:08.219Z,101274.09
2023-11-09T15:46:20.701Z,101274.53
2023-11-09T15:49:12.396Z,101274.81
2023-11-09T15:52:11.092Z,101273.41
2023-11-09T15:54:55.031Z,101272.91
2023-11-09T16:01:36.871Z,101273.38
2023-11-09T16:05:22.259Z,101272.09
2023-11-09T16:13:39.521Z,101287.59
2023-11-09T16:16:31.935Z,101290.56
2023-11-09T16:20:29.517Z,101296.16
2023-11-09T16:23:17.030Z,101289.50
2023-11-09T16:27:10.543Z,101293.13
2023-11-09T16:32:53.629Z,101293.50
2023-11-09T16:36:08.659Z,101308.41
2023-11-09T16:38:54.336Z,101306.78
2023-11-09T16:42:11.667Z,101312.03
2023-11-09T16:45:05.240Z,101311.13
2023-11-09T16:47:52.639Z,101309.41
2023-11-09T16:51:18.912Z,101306.91
2023-11-09T16:54:33.372Z,101309.75
2023-11-09T16:57:16.379Z,101307.25
2023-11-09T17:00:21.324Z,101309.06
2023-11-09T17:07:14.195Z,101312.50
2023-11-09T17:10:48.979Z,101306.38
2023-11-09T17:14:23.379Z,101311.84
2023-11-09T17:17:38.896Z,101322.50
2023-11-09T17:20:22.047Z,101313.94
2023-11-09T17:23:09.210Z,101297.53
2023-11-09T17:26:05.302Z,101315.31
2023-11-09T17:28:35.775Z,101323.47
2023-11-09T17:31:22.401Z,101321.00
2023-11-09T17:34:06.041Z,101332.53
2023-11-09T17:36:44.630Z,101317.63
2023-11-09T17:39:46.893Z,101307.09
2023-11-09T17:42:47.595Z,101330.88
2023-11-09T17:45:45.009Z,101319.63
2023-11-09T17:48:47.338Z,101321.47
2023-11-09T17:51:36.558Z,101313.72
2023-11-09T18:01:17.209Z,101293.88
2023-11-09T18:04:33.417Z,101324.50
2023-11-09T18:07:08.199Z,101305.34
2023-11-09T18:09:47.998Z,101323.06
2023-11-09T18:12:54.515Z,101317.06
2023-11-09T18:16:01.645Z,101323.31
2023-11-09T18:18:39.360Z,101335.66
2023-11-09T18:21:22.009Z,101322.53
2023-11-09T18:24:21.371Z,101331.28
2023-11-09T18:26:58.444Z,101331.28
2023-11-09T18:30:11.872Z,101323.44
2023-11-09T18:32:49.617Z,101323.38
2023-11-09T18:35:19.129Z,101327.75
2023-11-09T18:37:51.160Z,101313.75
2023-11-09T18:40:18.564Z,101329.50
2023-11-09T18:45:39.620Z,101299.81
2023-11-09T18:48:07.313Z,101299.84
2023-11-09T18:53:08.041Z,101312.97
2023-11-09T18:55:35.349Z,101312.97
2023-11-09T18:58:28.218Z,101326.06
2023-11-09T19:00:58.322Z,101324.34
2023-11-09T19:06:23.426Z,101334.38
2023-11-09T19:09:29.116Z,101346.75
2023-11-09T19:15:33.017Z,101343.38
2023-11-09T19:18:53.957Z,101338.09
2023-11-09T19:24:48.399Z,101339.84
2023-11-09T19:27:42.718Z,101339.84
2023-11-09T19:30:38.415Z,101337.22
2023-11-09T19:33:22.791Z,101346.00
2023-11-09T19:36:39.115Z,101346.03
2023-11-09T19:39:23.845Z,101351.31
2023-11-09T19:42:24.950Z,101340.84
2023-11-09T19:45:01.405Z,101350.47
2023-11-09T19:48:01.289Z,101351.38
2023-11-09T19:50:44.132Z,101340.03
2023-11-09T19:53:29.697Z,101342.63
2023-11-09T19:56:05.458Z,101319.03
2023-11-09T19:58:59.192Z,101344.41
2023-11-09T20:01:53.387Z,101355.81
2023-11-09T20:04:36.303Z,101340.94
2023-11-09T20:07:17.642Z,101343.53
2023-11-09T20:10:14.783Z,101343.56
2023-11-09T20:13:51.240Z,101344.41
2023-11-09T20:19:23.018Z,101342.66
2023-11-09T20:22:05.549Z,101352.28
2023-11-09T20:24:42.141Z,101348.78
2023-11-09T20:27:19.198Z,101338.34
2023-11-09T20:30:07.987Z,101343.66
2023-11-09T20:33:08.659Z,101351.53
2023-11-09T20:40:18.449Z,101341.88
2023-11-09T20:42:55.831Z,101341.84
2023-11-09T20:45:27.148Z,101343.59
2023-11-09T20:47:55.530Z,101350.59
2023-11-09T20:50:25.377Z,101344.47
2023-11-09T21:02:06.497Z,101335.75
2023-11-09T21:04:44.760Z,101348.00
2023-11-09T21:07:20.800Z,101348.91
2023-11-09T21:13:09.557Z,101357.66
2023-11-09T21:16:10.974Z,101343.66
2023-11-09T21:19:08.382Z,101351.50
2023-11-09T21:23:01.524Z,101350.66
2023-11-09T21:26:02.040Z,101349.78
2023-11-09T21:29:07.290Z,101353.28
2023-11-09T21:34:48.020Z,101362.91
2023-11-09T21:37:27.633Z,101355.94
2023-11-09T21:40:10.003Z,101350.66
2023-11-09T21:46:05.319Z,101364.69
2023-11-09T21:48:44.345Z,101357.69
2023-11-09T21:51:16.335Z,101362.94
2023-11-09T21:54:07.774Z,101349.78
2023-11-09T21:56:46.414Z,101348.94
2023-11-09T21:59:16.916Z,101353.28
2023-11-09T22:01:44.525Z,101358.56
2023-11-09T22:04:12.307Z,101354.16
2023-11-09T22:06:39.672Z,101352.41
2023-11-09T22:09:08.790Z,101348.03
2023-11-09T22:11:37.024Z,101351.53
2023-11-09T22:14:10.396Z,101352.41
2023-11-09T22:16:42.092Z,101334.00
2023-11-09T22:19:10.217Z,101348.91
2023-11-09T22:21:37.865Z,101343.66
2023-11-09T22:24:06.829Z,101348.91
2023-11-09T22:26:34.611Z,101345.38
2023-11-09T22:29:02.215Z,101331.41
2023-11-09T22:31:29.928Z,101347.13
2023-11-09T22:33:58.662Z,101337.50
2023-11-09T22:36:26.159Z,101334.88
2023-11-09T22:38:53.719Z,101356.78
2023-11-09T22:41:20.847Z,101347.16
2023-11-09T22:43:48.655Z,101349.78
2023-11-09T22:46:15.877Z,101348.03
2023-11-09T22:48:43.448Z,101343.66
2023-11-09T22:51:10.769Z,101333.13
2023-11-09T22:53:39.349Z,101334.03
2023-11-09T22:56:07.617Z,101338.41
2023-11-09T22:58:35.193Z,101341.91
2023-11-09T23:01:05.452Z,101344.53
2023-11-09T23:03:34.051Z,101328.78
2023-11-09T23:06:01.809Z,101343.66
2023-11-09T23:08:31.945Z,101335.75
2023-11-09T23:10:59.610Z,101335.75
2023-11-09T23:13:29.502Z,101337.50
2023-11-09T23:15:56.757Z,101341.84
2023-11-09T23:18:24.195Z,101332.22
2023-11-09T23:20:53.235Z,101333.09
2023-11-09T23:23:20.873Z,101346.28
2023-11-09T23:25:48.116Z,101327.84
2023-11-09T23:28:15.661Z,101330.50
2023-11-09T23:30:44.686Z,101333.97
2023-11-09T23:33:12.233Z,101330.47
2023-11-09T23:35:39.345Z,101341.00
2023-11-09T23:38:06.807Z,101341.84
2023-11-09T23:40:33.914Z,101326.97
2023-11-09T23:43:01.323Z,101325.19
2023-11-09T23:45:28.919Z,101309.47
2023-11-09T23:47:56.499Z,101325.22
2023-11-09T23:50:23.581Z,101307.72
2023-11-09T23:52:51.076Z,101325.22
2023-11-09T23:55:18.318Z,101317.31
2023-11-09T23:57:46.513Z,101318.19
